• Join FlightAware (Why Join?)
  • Login
  • US Flag 
10:29AM EST


 

Airport Tracker/Info


-or-


 

Live Flight TrackerFlight Track Log ✈ CTL384 ✈ 08-May-2013 ✈ KMKC - KCPS

Flight Track Log - Related Links

Times and Time Zones

All times are in EDT time to prevent confusion due to time zone crossing. See the CTL384 flight status page for this flight to view local times or setup timezone preferences in your user account.

Time Position Orientation Groundspeed Altitude Reporting Facility
EDT Latitude Longitude Course Direction KTS MPH feet Rate Location/Type
06:59AM 39.0667 -94.6333 180° South 120 138 4,100  Level Kansas City TRACON
07:00AM 39.0714 -94.6192 67° East 121 139 4,400 1,020 Climbing Kansas City Center
07:01AM 39.0667 -94.5703 97° East 123 142 5,500 1,020 Climbing Kansas City Center
07:02AM 39.0639 -94.5278 95° East 124 143 6,500 780 Climbing Kansas City Center
07:03AM 39.0597 -94.4833 97° East 131 151 7,100 240 Climbing Kansas City Center
07:04AM 39.0528 -94.4153 97° East 171 197 7,000 -120 Descending Kansas City Center
07:05AM 39.0456 -94.3544 99° East 180 207 6,900  Descending Kansas City Center
07:06AM 39.0381 -94.2933 99° East 180 207 7,000  Climbing Kansas City Center
07:07AM 39.0333 -94.2178 95° East 189 217 7,000  Level Kansas City Center
07:08AM 39.0258 -94.1542 99° East 189 217 7,000  Level Kansas City Center
07:09AM 39.0281 -94.0886 87° East 191 220 7,000  Level Kansas City Center
07:10AM 39.0211 -94.0244 98° East 190 219 7,000  Level Kansas City Center
07:11AM 39.0167 -93.9500 94° East 187 215 7,100  Climbing Kansas City Center
07:12AM 39.0047 -93.8869 104° East 189 217 7,000 -60 Descending Kansas City Center
07:13AM 38.9967 -93.8236 99° East 188 216 7,000  Level Kansas City Center
07:14AM 38.9922 -93.7492 94° East 189 217 7,000  Level Kansas City Center
07:15AM 38.9844 -93.6850 99° East 188 216 7,100  Climbing Kansas City Center
07:16AM 38.9747 -93.6178 101° East 190 219 7,100  Level Kansas City Center
07:17AM 38.9644 -93.5511 101° East 191 220 7,100  Level Kansas City Center
07:18AM 38.9525 -93.4856 103° East 189 217 7,100  Level Kansas City Center
07:19AM 38.9469 -93.4175 96° East 190 219 7,100  Level Kansas City Center
07:20AM 38.9428 -93.3494 94° East 191 220 7,100  Level Kansas City Center
07:21AM 38.9347 -93.2831 99° East 189 217 7,100  Level Kansas City Center
07:22AM 38.9258 -93.2178 100° East 186 214 7,100  Level Kansas City Center
07:23AM 38.9156 -93.1525 101° East 187 215 7,100  Level Kansas City Center
07:24AM 38.9100 -93.0853 96° East 187 215 7,100  Level Kansas City Center
07:25AM 38.9061 -93.0206 94° East 184 212 7,100  Level Kansas City Center
07:26AM 38.9033 -92.9542 93° East 184 212 7,100 -120 Level Kansas City Center
07:27AM 38.8978 -92.8867 96° East 187 215 6,900 -120 Descending Kansas City Center
07:28AM 38.8972 -92.8208 91° East 186 214 6,900  Level Kansas City Center
07:29AM 38.8961 -92.7556 91° East 184 212 7,000  Climbing Kansas City Center
07:30AM 38.8931 -92.6769 93° East 182 209 6,900 -60 Descending Kansas City Center
07:31AM 38.8894 -92.6117 94° East 182 209 6,900  Level Kansas City Center
07:32AM 38.8808 -92.5475 100° East 182 209 7,000  Climbing Kansas City Center
07:33AM 38.8722 -92.4839 100° East 181 208 6,900 -60 Descending Kansas City Center
07:34AM 38.8672 -92.4189 96° East 181 208 6,900  Level Kansas City Center
07:35AM 38.8594 -92.3550 99° East 181 208 6,900  Level Kansas City Center
07:36AM 38.8506 -92.2925 100° East 179 206 6,900  Level Kansas City Center
07:37AM 38.8419 -92.2300 100° East 178 205 6,900  Level Kansas City Center
07:38AM 38.8367 -92.1664 96° East 178 205 6,900  Level Kansas City Center
07:39AM 38.8308 -92.1022 98° East 179 206 6,900  Level Kansas City Center
07:40AM 38.8261 -92.0381 95° East 180 207 6,900 -120 Level Kansas City Center
07:41AM 38.8189 -91.9736 98° East 181 208 6,700 -300 Descending Kansas City Center
07:42AM 38.8061 -91.9050 103° East 190 219 6,300 -420 Descending Kansas City Center
07:43AM 38.7947 -91.8375 102° East 192 221 5,900 -360 Descending Kansas City Center
07:44AM 38.7822 -91.7700 103° East 194 223 5,600 -420 Descending Kansas City Center
07:45AM 38.7708 -91.7028 102° East 190 219 5,100 -360 Descending Kansas City Center
07:46AM 38.7636 -91.6367 98° East 189 217 4,900 -120 Descending Kansas City Center
07:47AM 38.7539 -91.5758 102° East 180 207 4,900  Level Kansas City Center
07:48AM 38.7456 -91.5169 100° East 174 200 4,900  Level Kansas City Center
07:49AM 38.7417 -91.4569 95° East 171 197 4,900  Level Kansas City Center
07:50AM 38.7367 -91.3975 96° East 170 196 5,000  Climbing Kansas City Center
07:52AM 38.7232 -91.3245 103° East  Level FlightAware Approximate
07:52AM 38.7142 -91.2669 103° East 171 197 5,000  Level Kansas City Center
07:53AM 38.7053 -91.2097 101° East 167 192 5,100  Climbing Kansas City Center
07:54AM 38.6983 -91.1525 99° East 164 189 5,100 -60 Level Kansas City Center
07:55AM 38.6881 -91.0928 102° East 170 196 5,000 -300 Descending Kansas City Center
07:56AM 38.6756 -91.0317 105° East 175 201 4,500 -360 Descending Kansas City Center
07:57AM 38.6647 -90.9694 103° East 179 206 4,300 -180 Descending Kansas City Center
07:58AM 38.6597 -90.9092 96° East 174 200 4,200 -180 Descending Kansas City Center
07:59AM 38.6508 -90.8492 101° East 172 198 4,000 -240 Descending Kansas City Center
08:00AM 38.6433 -90.7892 99° East 172 198 3,800  Descending Kansas City Center
08:01AM 38.6356 -90.7211 98° East 165 190 4,100 60 Climbing Kansas City Center
08:02AM 38.6278 -90.6647 100° East 163 188 4,000 -60 Descending Kansas City Center
08:04AM 38.6192 -90.6064 101° East 166 191 4,000  Level Kansas City Center
08:05AM 38.6100 -90.5492 102° East 166 191 4,000 -300 Level Kansas City Center
08:06AM 38.6025 -90.4897 99° East 170 196 3,500 -480 Descending Kansas City Center
08:07AM 38.5936 -90.4269 100° East 180 207 3,100 -360 Descending Kansas City Center
08:08AM 38.5903 -90.3633 94° East 181 208 2,800 -480 Descending Kansas City Center
08:09AM 38.5869 -90.2889 93° East 181 208 2,200 -540 Descending Kansas City Center
08:10AM 38.5811 -90.2231 96° East 184 212 1,800 -840 Descending Kansas City Center
08:11AM 38.5769 -90.1692 96° East 167 192 600 -1,200 Descending Kansas City Center
08:13AM 38.5667 -90.1500 90° East  Level FlightAware Approximate
08:20AM 38.5704 -90.1551 90° East  Level Estimated
08:21AM 38.5667 -90.1500 90° East  Level FlightAware Approximate
08:22AM 38.5704 -90.1551 90° East  Level Estimated
08:23AM 38.5667 -90.1500 90° East  Level FlightAware Approximate
08:24AM 38.5704 -90.1551 90° East  Level Estimated
08:25AM 38.5667 -90.1500 90° East  Level FlightAware Approximate
08:26AM 38.5704 -90.1551 90° East  Level Estimated
08:27AM 38.5667 -90.1500 90° East  Level FlightAware Approximate
08:28AM 38.5704 -90.1551 90° East  Level Estimated